createdAt,value
2022-12-05T00:01:26.873Z,99139.97
2022-12-05T00:03:57.274Z,99138.94
2022-12-05T00:06:28.697Z,99128.53
2022-12-05T00:08:57.465Z,99129.22
2022-12-05T00:11:27.541Z,99124.78
2022-12-05T00:13:56.668Z,99137.66
2022-12-05T00:16:27.623Z,99139.31
2022-12-05T00:18:56.039Z,99148.56
2022-12-05T00:21:26.960Z,99150.19
2022-12-05T00:23:56.656Z,99152.78
2022-12-05T00:26:25.288Z,99178.13
2022-12-05T00:28:54.257Z,99158.47
2022-12-05T00:31:24.238Z,99168.06
2022-12-05T00:33:52.944Z,99179.28
2022-12-05T00:36:23.028Z,99174.94
2022-12-05T00:38:52.970Z,99168.00
2022-12-05T00:41:22.933Z,99178.72
2022-12-05T00:43:51.359Z,99171.94
2022-12-05T00:46:21.385Z,99153.66
2022-12-05T00:48:49.654Z,99164.22
2022-12-05T00:51:19.724Z,99150.56
2022-12-05T00:53:48.765Z,99165.50
2022-12-05T00:56:22.064Z,99147.53
2022-12-05T00:58:51.106Z,99146.00
2022-12-05T01:01:22.150Z,99163.63
2022-12-05T01:03:52.592Z,99168.16
2022-12-05T01:06:20.849Z,99162.66
2022-12-05T01:08:48.941Z,99165.59
2022-12-05T01:11:20.225Z,99157.34
2022-12-05T01:13:48.678Z,99147.09
2022-12-05T01:16:17.453Z,99164.22
2022-12-05T01:18:45.544Z,99157.84
2022-12-05T01:21:13.980Z,99174.50
2022-12-05T01:23:41.889Z,99162.00
2022-12-05T01:26:12.780Z,99171.94
2022-12-05T01:28:43.071Z,99167.91
2022-12-05T01:31:17.966Z,99161.03
2022-12-05T01:33:46.017Z,99158.97
2022-12-05T01:36:13.975Z,99172.72
2022-12-05T01:38:43.340Z,99176.56
2022-12-05T01:41:15.211Z,99174.28
2022-12-05T01:43:59.982Z,99177.88
2022-12-05T01:46:30.341Z,99158.28
2022-12-05T01:49:02.597Z,99165.41
2022-12-05T01:51:31.794Z,99178.41
2022-12-05T01:54:00.425Z,99163.44
2022-12-05T01:56:28.478Z,99167.94
2022-12-05T01:58:58.066Z,99171.63
2022-12-05T02:01:26.105Z,99178.09
2022-12-05T02:03:57.400Z,99181.34
2022-12-05T02:06:27.945Z,99179.13
2022-12-05T02:08:55.767Z,99191.91
2022-12-05T02:11:26.041Z,99195.09
2022-12-05T02:14:19.755Z,99191.88
2022-12-05T02:16:59.076Z,99183.84
2022-12-05T02:20:04.934Z,99186.34
2022-12-05T02:22:59.653Z,99191.16
2022-12-05T02:25:51.685Z,99178.59
2022-12-05T02:28:40.230Z,99178.00
2022-12-05T02:31:13.598Z,99183.44
2022-12-05T02:33:48.766Z,99187.38
2022-12-05T02:36:23.154Z,99174.66
2022-12-05T02:38:57.813Z,99204.75
2022-12-05T02:41:29.500Z,99189.06
2022-12-05T02:44:01.391Z,99196.38
2022-12-05T02:46:33.367Z,99197.94
2022-12-05T02:49:05.325Z,99202.44
2022-12-05T02:51:37.148Z,99198.75
2022-12-05T02:54:10.021Z,99189.56
2022-12-05T02:56:39.855Z,99174.28
2022-12-05T02:59:07.787Z,99158.88
2022-12-05T03:01:37.252Z,99175.94
2022-12-05T03:04:07.989Z,99168.88
2022-12-05T03:06:41.208Z,99165.16
2022-12-05T03:09:14.553Z,99160.19
2022-12-05T03:11:48.093Z,99169.31
2022-12-05T03:14:22.432Z,99161.75
2022-12-05T03:16:54.367Z,99170.44
2022-12-05T03:19:28.013Z,99170.25
2022-12-05T03:22:01.479Z,99169.47
2022-12-05T03:24:29.983Z,99167.44
2022-12-05T03:27:07.882Z,99171.69
2022-12-05T03:29:40.397Z,99179.38
2022-12-05T03:32:16.762Z,99176.97
2022-12-05T03:34:54.024Z,99189.75
2022-12-05T03:37:31.624Z,99183.91
2022-12-05T03:40:07.544Z,99188.88
2022-12-05T03:42:41.548Z,99164.66
2022-12-05T03:45:13.662Z,99176.00
2022-12-05T03:47:51.666Z,99150.53
2022-12-05T03:50:23.874Z,99134.22
2022-12-05T03:53:19.242Z,99134.47
2022-12-05T03:55:48.405Z,99108.41
2022-12-05T03:58:21.806Z,99111.00
2022-12-05T04:00:52.312Z,99110.22
2022-12-05T04:03:28.201Z,99109.03
2022-12-05T04:06:00.337Z,99096.88
2022-12-05T04:08:33.086Z,99095.34
2022-12-05T04:11:06.154Z,99101.72
2022-12-05T04:13:38.876Z,99085.63
2022-12-05T04:16:30.306Z,99107.38
2022-12-05T04:19:04.403Z,99100.34
2022-12-05T04:21:40.898Z,99100.00
2022-12-05T04:24:29.809Z,99084.88
2022-12-05T04:27:10.303Z,99072.13
2022-12-05T04:29:46.274Z,99075.81
2022-12-05T04:32:15.538Z,99089.59
2022-12-05T04:34:51.864Z,99101.22
2022-12-05T04:37:26.225Z,99084.84
2022-12-05T04:40:00.036Z,99097.66
2022-12-05T04:42:31.214Z,99087.78
2022-12-05T04:45:04.588Z,99088.81
2022-12-05T04:47:37.151Z,99088.72
2022-12-05T04:50:11.296Z,99089.59
2022-12-05T04:52:40.799Z,99087.44
2022-12-05T04:55:13.416Z,99076.28
2022-12-05T04:57:46.389Z,99071.44
2022-12-05T05:00:14.903Z,99065.84
2022-12-05T05:02:47.950Z,99066.13
2022-12-05T05:05:19.858Z,99075.03
2022-12-05T05:07:49.597Z,99079.97
2022-12-05T05:10:21.012Z,99081.25
2022-12-05T05:12:48.915Z,99069.91
2022-12-05T05:15:17.068Z,99071.59
2022-12-05T05:17:45.232Z,99084.44
2022-12-05T05:20:25.608Z,99069.31
2022-12-05T05:22:55.941Z,99061.81
2022-12-05T05:25:23.977Z,99065.91
2022-12-05T05:27:53.089Z,99070.06
2022-12-05T05:30:22.102Z,99085.91
2022-12-05T05:32:50.176Z,99073.19
2022-12-05T05:35:18.153Z,99078.94
2022-12-05T05:37:45.987Z,99075.56
2022-12-05T05:40:15.719Z,99063.19
2022-12-05T05:42:44.714Z,99062.06
2022-12-05T05:45:14.881Z,99068.03
2022-12-05T05:47:43.315Z,99056.31
2022-12-05T05:50:17.927Z,99057.19
2022-12-05T05:52:49.037Z,99061.81
2022-12-05T05:55:18.699Z,99046.75
2022-12-05T05:57:46.552Z,99048.75
2022-12-05T06:00:15.801Z,99044.34
2022-12-05T06:02:43.741Z,99041.50
2022-12-05T06:05:11.869Z,99043.91
2022-12-05T06:07:39.823Z,99039.97
2022-12-05T06:10:08.855Z,99045.06
2022-12-05T06:12:38.196Z,99041.28
2022-12-05T06:15:07.331Z,99042.22
2022-12-05T06:17:35.193Z,99041.63
2022-12-05T06:20:03.370Z,99026.53
2022-12-05T06:22:31.617Z,99044.63
2022-12-05T06:24:59.872Z,99039.13
2022-12-05T06:27:31.327Z,99035.25
2022-12-05T06:30:01.091Z,99028.53
2022-12-05T06:32:29.865Z,99035.78
2022-12-05T06:34:57.922Z,99032.59
2022-12-05T06:37:25.901Z,99036.44
2022-12-05T06:39:53.749Z,99027.53
2022-12-05T06:42:22.388Z,99024.34
2022-12-05T06:44:50.391Z,99024.59
2022-12-05T06:47:19.895Z,99011.44
2022-12-05T06:49:47.795Z,99009.13
2022-12-05T06:52:15.952Z,99004.91
2022-12-05T06:54:43.785Z,99026.41
2022-12-05T06:57:11.627Z,99012.81
2022-12-05T06:59:39.574Z,99005.31
2022-12-05T07:02:08.379Z,99012.72
2022-12-05T07:04:37.861Z,99028.13
2022-12-05T07:07:06.219Z,99034.91
2022-12-05T07:09:52.330Z,99028.97
2022-12-05T07:12:20.813Z,99022.72
2022-12-05T07:14:49.886Z,99027.41
2022-12-05T07:17:18.782Z,99019.69
2022-12-05T07:19:50.624Z,99024.69
2022-12-05T07:22:18.981Z,99030.09
2022-12-05T07:24:47.369Z,99030.88
2022-12-05T07:27:18.464Z,99047.06
2022-12-05T07:29:48.516Z,99035.88
2022-12-05T07:32:16.555Z,99044.91
2022-12-05T07:34:44.402Z,99059.84
2022-12-05T07:37:14.155Z,99051.34
2022-12-05T07:39:42.175Z,99054.59
2022-12-05T07:42:10.296Z,99057.19
2022-12-05T07:44:38.366Z,99058.22
2022-12-05T07:47:06.658Z,99066.38
2022-12-05T07:49:34.711Z,99072.06
2022-12-05T07:52:03.183Z,99071.03
2022-12-05T07:54:32.642Z,99071.28
2022-12-05T07:57:00.568Z,99066.38
2022-12-05T07:59:28.629Z,99079.88
2022-12-05T08:01:56.870Z,99073.69
2022-12-05T08:04:25.531Z,99079.53
2022-12-05T08:06:53.483Z,99074.56
2022-12-05T08:09:21.495Z,99088.47
2022-12-05T08:11:52.763Z,99082.13
2022-12-05T08:14:21.645Z,99081.25
2022-12-05T08:16:49.843Z,99078.59
2022-12-05T08:19:17.913Z,99079.47
2022-12-05T08:21:45.878Z,99086.94
2022-12-05T08:24:14.273Z,99095.34
2022-12-05T08:26:42.344Z,99094.22
2022-12-05T08:29:13.733Z,99109.50
2022-12-05T08:31:47.165Z,99115.59
2022-12-05T08:34:16.078Z,99105.31
2022-12-05T08:36:44.081Z,99126.59
2022-12-05T08:39:15.898Z,99128.25
2022-12-05T08:41:44.752Z,99128.31
2022-12-05T08:44:16.992Z,99122.31
2022-12-05T08:46:47.482Z,99115.53
2022-12-05T08:49:15.938Z,99109.41
2022-12-05T08:51:44.823Z,99114.47
2022-12-05T08:54:13.206Z,99113.38
2022-12-05T08:56:41.243Z,99114.22
2022-12-05T08:59:09.430Z,99120.06
2022-12-05T09:01:39.453Z,99121.13
2022-12-05T09:04:08.944Z,99129.34
2022-12-05T09:06:39.287Z,99125.09
2022-12-05T09:09:09.367Z,99132.94
2022-12-05T09:11:40.717Z,99117.94
2022-12-05T09:14:08.858Z,99108.84
2022-12-05T09:16:39.804Z,99125.91
2022-12-05T09:19:13.272Z,99129.16
2022-12-05T09:21:41.587Z,99120.16
2022-12-05T09:24:10.974Z,99124.78
2022-12-05T09:26:40.817Z,99135.69
2022-12-05T09:29:14.155Z,99133.78
2022-12-05T09:31:46.327Z,99134.22
2022-12-05T09:34:15.403Z,99120.72
2022-12-05T09:36:44.126Z,99127.88
2022-12-05T09:39:12.441Z,99122.72
2022-12-05T09:42:13.212Z,99121.13
2022-12-05T09:44:47.090Z,99130.38
2022-12-05T09:47:29.252Z,99127.78
2022-12-05T09:50:02.514Z,99125.91
2022-12-05T09:52:32.762Z,99128.81
2022-12-05T09:55:06.613Z,99128.81
2022-12-05T09:57:39.481Z,99122.91
2022-12-05T10:00:09.056Z,99127.47
2022-12-05T10:02:47.257Z,99120.41
2022-12-05T10:05:24.072Z,99127.38
2022-12-05T10:07:59.453Z,99123.44
2022-12-05T10:10:35.855Z,99133.47
2022-12-05T10:13:28.305Z,99125.34
2022-12-05T10:15:59.417Z,99122.22
2022-12-05T10:18:38.433Z,99125.75
2022-12-05T10:21:16.778Z,99117.44
2022-12-05T10:23:58.268Z,99110.72
2022-12-05T10:26:31.447Z,99113.38
2022-12-05T10:29:08.952Z,99128.69
2022-12-05T10:31:39.665Z,99117.28
2022-12-05T10:34:16.252Z,99138.66
2022-12-05T10:36:54.563Z,99116.50
2022-12-05T10:39:22.796Z,99104.13
2022-12-05T10:41:52.016Z,99113.50
2022-12-05T10:44:19.950Z,99116.84
2022-12-05T10:46:48.061Z,99128.59
2022-12-05T10:49:17.868Z,99129.44
2022-12-05T10:51:46.168Z,99123.09
2022-12-05T10:54:19.460Z,99136.31
2022-12-05T10:56:48.880Z,99120.09
2022-12-05T10:59:19.263Z,99126.00
2022-12-05T11:01:52.304Z,99123.69
2022-12-05T11:04:42.498Z,99135.13
2022-12-05T11:07:26.133Z,99129.69
2022-12-05T11:09:54.689Z,99127.50
2022-12-05T11:12:25.997Z,99126.63
2022-12-05T11:15:01.201Z,99132.31
2022-12-05T11:17:33.146Z,99119.22
2022-12-05T11:20:02.954Z,99122.28
2022-12-05T11:22:33.609Z,99117.50
2022-12-05T11:25:01.703Z,99125.13
2022-12-05T11:27:31.581Z,99113.47
2022-12-05T11:30:02.574Z,99114.81
2022-12-05T11:32:33.210Z,99117.59
2022-12-05T11:35:12.912Z,99124.25
2022-12-05T11:37:45.990Z,99114.78
2022-12-05T11:40:17.517Z,99122.81
2022-12-05T11:43:14.633Z,99101.44
2022-12-05T11:45:54.412Z,99112.34
2022-12-05T11:48:47.570Z,99114.81
2022-12-05T11:51:30.089Z,99119.38
2022-12-05T11:54:42.106Z,99110.38
2022-12-05T11:57:26.132Z,99104.34
2022-12-05T12:00:09.101Z,99114.38
2022-12-05T12:03:02.874Z,99101.25
2022-12-05T12:05:38.773Z,99114.81
2022-12-05T12:08:22.437Z,99115.50
2022-12-05T12:11:03.649Z,99116.44
2022-12-05T12:13:52.576Z,99109.41
2022-12-05T12:16:31.129Z,99102.09
2022-12-05T12:19:22.355Z,99100.28
2022-12-05T12:22:05.518Z,99099.38
2022-12-05T12:24:50.157Z,99105.78
2022-12-05T12:27:34.716Z,99105.53
2022-12-05T12:30:07.944Z,99120.28
2022-12-05T12:32:44.800Z,99129.81
2022-12-05T12:35:30.184Z,99116.19
2022-12-05T12:38:18.419Z,99099.81
2022-12-05T12:40:51.566Z,99117.72
2022-12-05T12:46:35.324Z,99109.44
2022-12-05T12:49:26.146Z,99117.06
2022-12-05T12:51:55.977Z,99107.31
2022-12-05T12:55:06.505Z,99116.97
2022-12-05T12:57:50.696Z,99089.31
2022-12-05T13:00:24.868Z,99109.53
2022-12-05T13:02:58.199Z,99096.50
2022-12-05T13:05:34.491Z,99110.53
2022-12-05T13:08:07.772Z,99118.94
2022-12-05T13:10:40.835Z,99112.88
2022-12-05T13:13:15.026Z,99121.19
2022-12-05T13:15:47.824Z,99126.66
2022-12-05T13:18:19.447Z,99120.41
2022-12-05T13:20:50.570Z,99119.22
2022-12-05T13:23:22.510Z,99130.66
2022-12-05T13:25:52.477Z,99121.28
2022-12-05T13:28:28.659Z,99148.59
2022-12-05T13:31:02.773Z,99137.78
2022-12-05T13:33:35.166Z,99149.84
2022-12-05T13:36:27.885Z,99154.00
2022-12-05T13:39:22.882Z,99158.94
2022-12-05T13:42:11.649Z,99165.47
2022-12-05T13:44:44.819Z,99179.34
2022-12-05T13:47:29.013Z,99175.84
2022-12-05T13:50:02.489Z,99188.97
2022-12-05T13:52:33.475Z,99192.59
2022-12-05T13:55:06.607Z,99190.50
2022-12-05T13:57:55.725Z,99195.94
2022-12-05T14:00:43.346Z,99203.31
2022-12-05T14:03:19.607Z,99193.38
2022-12-05T14:05:50.004Z,99210.03
2022-12-05T14:08:57.072Z,99201.03
2022-12-05T14:11:25.043Z,99198.00
2022-12-05T14:13:53.735Z,99202.06
2022-12-05T14:16:50.756Z,99206.13
2022-12-05T14:19:53.292Z,99216.97
2022-12-05T14:22:38.492Z,99212.66
2022-12-05T14:25:15.109Z,99216.19
2022-12-05T14:27:57.096Z,99222.34
2022-12-05T14:30:31.216Z,99226.66
2022-12-05T14:33:02.898Z,99229.53
2022-12-05T14:35:33.149Z,99217.59
2022-12-05T14:38:04.072Z,99232.91
2022-12-05T14:40:34.976Z,99242.50
2022-12-05T14:43:06.014Z,99239.31
2022-12-05T14:45:39.940Z,99263.66
2022-12-05T14:48:31.879Z,99246.25
2022-12-05T14:51:00.877Z,99253.44
2022-12-05T14:53:36.767Z,99262.41
2022-12-05T14:56:13.714Z,99259.44
2022-12-05T14:58:48.365Z,99262.09
2022-12-05T15:01:20.781Z,99264.34
2022-12-05T15:04:17.626Z,99262.56
2022-12-05T15:06:49.819Z,99272.53
2022-12-05T15:09:38.929Z,99283.59
2022-12-05T15:12:13.668Z,99278.34
2022-12-05T15:14:49.010Z,99284.03
2022-12-05T15:17:24.499Z,99295.09
2022-12-05T15:20:03.705Z,99294.09
2022-12-05T15:22:35.692Z,99302.06
2022-12-05T15:25:16.890Z,99312.72
2022-12-05T15:27:54.465Z,99318.88
2022-12-05T15:30:22.440Z,99318.94
2022-12-05T15:32:52.755Z,99326.06
2022-12-05T15:35:28.038Z,99321.31
2022-12-05T15:37:59.854Z,99322.38
2022-12-05T15:40:37.125Z,99337.41
2022-12-05T15:43:28.739Z,99344.59
2022-12-05T15:46:25.067Z,99351.91
2022-12-05T15:48:53.688Z,99355.13
2022-12-05T15:51:28.359Z,99360.75
2022-12-05T15:54:01.954Z,99366.75
2022-12-05T15:56:33.832Z,99376.25
2022-12-05T15:59:06.050Z,99372.25
2022-12-05T16:01:42.254Z,99383.28
2022-12-05T16:04:22.579Z,99392.78
2022-12-05T16:06:56.477Z,99389.06
2022-12-05T16:09:27.232Z,99386.97
2022-12-05T16:11:57.298Z,99392.78
2022-12-05T16:14:58.515Z,99400.03
2022-12-05T16:17:21.574Z,99407.59
2022-12-05T16:19:50.052Z,99400.19
2022-12-05T16:22:24.082Z,99405.81
2022-12-05T16:24:57.340Z,99402.00
2022-12-05T16:27:27.391Z,99407.59
2022-12-05T16:30:20.177Z,99408.00
2022-12-05T16:32:50.079Z,99405.75
2022-12-05T16:35:33.899Z,99404.44
2022-12-05T16:38:20.917Z,99408.72
2022-12-05T16:40:58.091Z,99413.66
2022-12-05T16:43:43.865Z,99425.81
2022-12-05T16:46:43.962Z,99418.63
2022-12-05T16:49:19.341Z,99427.00
2022-12-05T16:51:56.323Z,99425.69
2022-12-05T16:54:25.687Z,99435.97
2022-12-05T16:56:53.618Z,99437.09
2022-12-05T16:59:26.715Z,99444.81
2022-12-05T17:01:54.683Z,99450.25
2022-12-05T17:04:22.765Z,99458.69
2022-12-05T17:06:50.774Z,99454.69
2022-12-05T17:09:18.719Z,99469.00
2022-12-05T17:11:50.533Z,99482.41
2022-12-05T17:14:19.900Z,99498.09
2022-12-05T17:16:47.953Z,99490.94
2022-12-05T17:19:16.524Z,99505.53
2022-12-05T17:21:45.048Z,99497.97
2022-12-05T17:24:17.346Z,99509.41
2022-12-05T17:26:47.447Z,99505.16
2022-12-05T17:29:15.453Z,99519.88
2022-12-05T17:31:43.377Z,99523.59
2022-12-05T17:34:17.584Z,99533.72
2022-12-05T17:36:46.109Z,99529.13
2022-12-05T17:39:14.455Z,99548.25
2022-12-05T17:41:42.334Z,99556.19
2022-12-05T17:44:15.084Z,99556.47
2022-12-05T17:46:43.549Z,99581.19
2022-12-05T17:49:14.112Z,99582.72
2022-12-05T17:52:05.462Z,99587.84
2022-12-05T17:54:30.497Z,99596.34
2022-12-05T17:56:58.640Z,99612.56
2022-12-05T17:59:28.453Z,99603.34
2022-12-05T18:01:56.450Z,99603.00
2022-12-05T18:04:24.361Z,99605.72
2022-12-05T18:06:52.128Z,99595.13
2022-12-05T18:09:20.137Z,99597.78
2022-12-05T18:11:48.079Z,99589.81
2022-12-05T18:14:16.375Z,99594.94
2022-12-05T18:16:45.811Z,99608.50
2022-12-05T18:19:13.775Z,99603.94
2022-12-05T18:21:41.666Z,99615.91
2022-12-05T18:24:09.589Z,99622.56
2022-12-05T18:26:37.517Z,99619.81
2022-12-05T18:29:05.602Z,99628.78
2022-12-05T18:31:33.705Z,99638.06
2022-12-05T18:34:03.002Z,99632.94
2022-12-05T18:36:30.896Z,99630.03
2022-12-05T18:38:59.260Z,99634.47
2022-12-05T18:41:27.587Z,99633.91
2022-12-05T18:43:55.704Z,99631.81
2022-12-05T18:46:23.653Z,99632.94
2022-12-05T18:48:52.022Z,99635.72
2022-12-05T18:51:23.345Z,99633.56
2022-12-05T18:53:53.558Z,99626.75
2022-12-05T18:56:25.791Z,99625.63
2022-12-05T18:58:55.707Z,99616.53
2022-12-05T19:01:24.398Z,99614.19
2022-12-05T19:03:53.058Z,99626.56
2022-12-05T19:06:24.593Z,99628.09
2022-12-05T19:08:54.694Z,99643.25
2022-12-05T19:11:23.098Z,99636.38
2022-12-05T19:13:51.141Z,99629.75
2022-12-05T19:16:19.271Z,99649.53
2022-12-05T19:18:47.726Z,99655.81
2022-12-05T19:21:15.695Z,99663.03
2022-12-05T19:23:45.055Z,99660.19
2022-12-05T19:26:13.049Z,99665.25
2022-12-05T19:28:41.119Z,99673.00
2022-12-05T19:31:10.738Z,99687.56
2022-12-05T19:33:40.555Z,99688.00
2022-12-05T19:36:11.574Z,99696.75
2022-12-05T19:38:40.769Z,99684.66
2022-12-05T19:41:12.651Z,99680.78
2022-12-05T19:43:40.940Z,99679.13
2022-12-05T19:46:11.771Z,99686.91
2022-12-05T19:48:40.286Z,99684.81
2022-12-05T19:51:08.886Z,99694.81
2022-12-05T19:53:39.007Z,99717.25
2022-12-05T19:56:09.652Z,99726.81
2022-12-05T19:58:39.768Z,99739.28
2022-12-05T20:01:09.362Z,99762.84
2022-12-05T20:03:37.692Z,99769.22
2022-12-05T20:06:07.094Z,99783.88
2022-12-05T20:08:45.850Z,99777.75
2022-12-05T20:11:17.162Z,99806.50
2022-12-05T20:13:47.966Z,99816.00
2022-12-05T20:16:18.339Z,99821.06
2022-12-05T20:18:47.089Z,99831.53
2022-12-05T20:21:18.174Z,99838.41
2022-12-05T20:23:46.779Z,99833.41
2022-12-05T20:26:17.835Z,99831.53
2022-12-05T20:28:47.838Z,99835.34
2022-12-05T20:31:17.947Z,99831.16
2022-12-05T20:33:46.225Z,99841.16
2022-12-05T20:36:16.451Z,99853.63
2022-12-05T20:38:45.076Z,99853.06
2022-12-05T20:41:15.510Z,99848.75
2022-12-05T20:43:43.928Z,99850.16
2022-12-05T20:46:16.536Z,99858.94
2022-12-05T20:48:44.856Z,99861.22
2022-12-05T20:51:14.669Z,99867.03
2022-12-05T20:53:43.785Z,99870.63
2022-12-05T20:56:13.299Z,99872.41
2022-12-05T20:58:42.141Z,99881.84
2022-12-05T21:01:11.962Z,99885.97
2022-12-05T21:03:43.010Z,99890.00
2022-12-05T21:06:13.008Z,99901.75
2022-12-05T21:08:40.984Z,99895.72
2022-12-05T21:11:10.032Z,99906.47
2022-12-05T21:13:38.292Z,99917.00
2022-12-05T21:16:08.235Z,99934.25
2022-12-05T21:18:37.175Z,99941.66
2022-12-05T21:21:08.397Z,99953.91
2022-12-05T21:23:36.401Z,99962.94
2022-12-05T21:26:07.451Z,99981.75
2022-12-05T21:28:36.477Z,99993.97
2022-12-05T21:31:09.860Z,100010.41
2022-12-05T21:33:38.625Z,100024.56
2022-12-05T21:36:10.135Z,100052.75
2022-12-05T21:38:38.184Z,100063.38
2022-12-05T21:41:07.114Z,100096.38
2022-12-05T21:43:36.300Z,100113.81
2022-12-05T21:46:05.161Z,100125.78
2022-12-05T21:48:34.298Z,100140.16
2022-12-05T21:51:02.615Z,100152.22
2022-12-05T21:53:31.960Z,100166.94
2022-12-05T21:56:00.863Z,100188.03
2022-12-05T21:58:29.002Z,100198.59
2022-12-05T22:00:56.900Z,100205.69
2022-12-05T22:03:25.223Z,100212.91
2022-12-05T22:06:01.193Z,100222.44
2022-12-05T22:08:32.469Z,100235.09
2022-12-05T22:11:11.234Z,100231.81
2022-12-05T22:13:39.816Z,100235.91
2022-12-05T22:16:08.684Z,100243.06
2022-12-05T22:18:37.349Z,100271.91
2022-12-05T22:21:07.758Z,100281.06
2022-12-05T22:23:37.080Z,100294.91
2022-12-05T22:26:06.845Z,100309.78
2022-12-05T22:28:35.699Z,100308.34
2022-12-05T22:31:06.985Z,100327.94
2022-12-05T22:33:36.760Z,100333.84
2022-12-05T22:36:06.901Z,100328.00
2022-12-05T22:38:37.596Z,100323.91
2022-12-05T22:41:07.772Z,100320.44
2022-12-05T22:43:37.573Z,100325.69
2022-12-05T22:46:07.280Z,100318.72
2022-12-05T22:48:36.489Z,100313.13
2022-12-05T22:51:05.330Z,100296.44
2022-12-05T22:53:33.227Z,100303.38
2022-12-05T22:56:08.144Z,100299.06
2022-12-05T22:58:37.080Z,100291.44
2022-12-05T23:01:13.163Z,100283.47
2022-12-05T23:03:42.096Z,100286.03
2022-12-05T23:06:12.231Z,100294.94
2022-12-05T23:08:40.832Z,100308.81
2022-12-05T23:11:11.348Z,100307.25
2022-12-05T23:13:40.352Z,100322.06
2022-12-05T23:16:09.955Z,100324.19
2022-12-05T23:18:47.777Z,100331.00
2022-12-05T23:21:17.805Z,100337.97
2022-12-05T23:23:46.004Z,100346.16
2022-12-05T23:26:15.898Z,100356.13
2022-12-05T23:28:44.931Z,100380.81
2022-12-05T23:31:13.523Z,100397.66
2022-12-05T23:33:41.845Z,100416.50
2022-12-05T23:36:11.199Z,100427.72
2022-12-05T23:38:41.063Z,100451.78
2022-12-05T23:41:11.704Z,100467.81
2022-12-05T23:43:41.648Z,100477.00
2022-12-05T23:46:10.558Z,100504.00
2022-12-05T23:48:39.465Z,100520.59
2022-12-05T23:51:10.022Z,100532.97
2022-12-05T23:53:40.087Z,100532.16
2022-12-05T23:56:10.321Z,100530.50
2022-12-05T23:58:39.856Z,100532.50
